sensor_id;sensor_type;location;lat;lon;timestamp;P1;durP1;ratioP1;P2;durP2;ratioP2
15110;SDS011;7656;51.954;7.998;2023-07-08T00:04:07;3.33;;;2.10;;
15110;SDS011;7656;51.954;7.998;2023-07-08T00:08:28;3.95;;;2.20;;
15110;SDS011;7656;51.954;7.998;2023-07-08T00:12:54;2.97;;;2.00;;
15110;SDS011;7656;51.954;7.998;2023-07-08T00:17:18;4.03;;;2.15;;
15110;SDS011;7656;51.954;7.998;2023-07-08T00:21:39;2.10;;;2.00;;
15110;SDS011;7656;51.954;7.998;2023-07-08T00:26:00;2.70;;;1.98;;
15110;SDS011;7656;51.954;7.998;2023-07-08T00:30:22;2.20;;;1.95;;
15110;SDS011;7656;51.954;7.998;2023-07-08T00:34:51;2.00;;;1.90;;
15110;SDS011;7656;51.954;7.998;2023-07-08T00:39:12;4.25;;;1.92;;
15110;SDS011;7656;51.954;7.998;2023-07-08T00:43:43;2.00;;;1.80;;
15110;SDS011;7656;51.954;7.998;2023-07-08T00:48:25;4.40;;;1.90;;
15110;SDS011;7656;51.954;7.998;2023-07-08T00:53:16;2.00;;;1.90;;
15110;SDS011;7656;51.954;7.998;2023-07-08T00:57:48;3.67;;;2.33;;
15110;SDS011;7656;51.954;7.998;2023-07-08T01:02:11;3.30;;;2.20;;
15110;SDS011;7656;51.954;7.998;2023-07-08T01:06:36;3.08;;;2.38;;
15110;SDS011;7656;51.954;7.998;2023-07-08T01:11:01;3.45;;;2.10;;
15110;SDS011;7656;51.954;7.998;2023-07-08T01:15:26;2.30;;;1.90;;
15110;SDS011;7656;51.954;7.998;2023-07-08T01:19:53;2.67;;;1.87;;
15110;SDS011;7656;51.954;7.998;2023-07-08T01:24:15;2.75;;;2.17;;
15110;SDS011;7656;51.954;7.998;2023-07-08T01:28:36;2.67;;;2.10;;
15110;SDS011;7656;51.954;7.998;2023-07-08T01:32:59;2.85;;;2.45;;
15110;SDS011;7656;51.954;7.998;2023-07-08T01:37:27;2.25;;;2.13;;
15110;SDS011;7656;51.954;7.998;2023-07-08T01:41:57;2.67;;;2.27;;
15110;SDS011;7656;51.954;7.998;2023-07-08T01:46:22;4.40;;;2.53;;
15110;SDS011;7656;51.954;7.998;2023-07-08T01:55:20;3.37;;;2.07;;
15110;SDS011;7656;51.954;7.998;2023-07-08T01:59:44;2.33;;;2.13;;
15110;SDS011;7656;51.954;7.998;2023-07-08T02:04:06;2.60;;;2.40;;
15110;SDS011;7656;51.954;7.998;2023-07-08T02:08:27;2.43;;;2.23;;
15110;SDS011;7656;51.954;7.998;2023-07-08T02:12:48;2.43;;;2.20;;
15110;SDS011;7656;51.954;7.998;2023-07-08T02:17:09;2.50;;;2.30;;
15110;SDS011;7656;51.954;7.998;2023-07-08T02:21:30;2.43;;;2.23;;
15110;SDS011;7656;51.954;7.998;2023-07-08T02:25:52;5.77;;;2.30;;
15110;SDS011;7656;51.954;7.998;2023-07-08T02:30:14;4.07;;;2.23;;
15110;SDS011;7656;51.954;7.998;2023-07-08T02:34:36;2.73;;;2.47;;
15110;SDS011;7656;51.954;7.998;2023-07-08T02:38:57;2.57;;;2.37;;
15110;SDS011;7656;51.954;7.998;2023-07-08T02:43:19;2.97;;;2.23;;
15110;SDS011;7656;51.954;7.998;2023-07-08T02:47:40;4.90;;;2.60;;
15110;SDS011;7656;51.954;7.998;2023-07-08T02:52:01;2.73;;;2.20;;
15110;SDS011;7656;51.954;7.998;2023-07-08T02:56:22;2.67;;;2.30;;
15110;SDS011;7656;51.954;7.998;2023-07-08T03:00:43;3.90;;;2.17;;
15110;SDS011;7656;51.954;7.998;2023-07-08T03:05:05;3.47;;;1.97;;
15110;SDS011;7656;51.954;7.998;2023-07-08T03:09:27;2.90;;;2.30;;
15110;SDS011;7656;51.954;7.998;2023-07-08T03:13:49;2.20;;;2.00;;
15110;SDS011;7656;51.954;7.998;2023-07-08T03:18:10;3.83;;;2.23;;
15110;SDS011;7656;51.954;7.998;2023-07-08T03:22:31;5.43;;;2.47;;
15110;SDS011;7656;51.954;7.998;2023-07-08T03:26:52;3.57;;;2.20;;
15110;SDS011;7656;51.954;7.998;2023-07-08T03:31:17;2.53;;;2.28;;
15110;SDS011;7656;51.954;7.998;2023-07-08T03:35:38;2.27;;;1.90;;
15110;SDS011;7656;51.954;7.998;2023-07-08T03:39:59;7.13;;;2.43;;
15110;SDS011;7656;51.954;7.998;2023-07-08T03:44:20;4.33;;;2.20;;
15110;SDS011;7656;51.954;7.998;2023-07-08T03:48:41;2.27;;;2.07;;
15110;SDS011;7656;51.954;7.998;2023-07-08T03:53:03;2.50;;;2.30;;
15110;SDS011;7656;51.954;7.998;2023-07-08T03:57:26;2.23;;;2.10;;
15110;SDS011;7656;51.954;7.998;2023-07-08T04:01:47;2.40;;;2.20;;
15110;SDS011;7656;51.954;7.998;2023-07-08T04:06:08;2.50;;;2.10;;
15110;SDS011;7656;51.954;7.998;2023-07-08T04:10:29;2.93;;;2.30;;
15110;SDS011;7656;51.954;7.998;2023-07-08T04:14:50;2.60;;;2.30;;
15110;SDS011;7656;51.954;7.998;2023-07-08T04:19:12;4.33;;;2.20;;
15110;SDS011;7656;51.954;7.998;2023-07-08T04:23:35;2.63;;;2.43;;
15110;SDS011;7656;51.954;7.998;2023-07-08T04:27:56;2.00;;;1.90;;
15110;SDS011;7656;51.954;7.998;2023-07-08T04:32:17;2.60;;;2.10;;
15110;SDS011;7656;51.954;7.998;2023-07-08T04:36:38;3.43;;;2.57;;
15110;SDS011;7656;51.954;7.998;2023-07-08T04:40:59;3.60;;;2.20;;
15110;SDS011;7656;51.954;7.998;2023-07-08T04:45:20;2.70;;;2.50;;
15110;SDS011;7656;51.954;7.998;2023-07-08T04:49:41;3.17;;;2.67;;
15110;SDS011;7656;51.954;7.998;2023-07-08T04:54:04;3.27;;;2.10;;
15110;SDS011;7656;51.954;7.998;2023-07-08T04:58:25;2.40;;;2.30;;
15110;SDS011;7656;51.954;7.998;2023-07-08T05:02:46;3.83;;;2.60;;
15110;SDS011;7656;51.954;7.998;2023-07-08T05:07:07;2.47;;;2.27;;
15110;SDS011;7656;51.954;7.998;2023-07-08T05:11:28;2.83;;;2.40;;
15110;SDS011;7656;51.954;7.998;2023-07-08T05:15:50;7.23;;;2.87;;
15110;SDS011;7656;51.954;7.998;2023-07-08T05:20:12;3.00;;;2.40;;
15110;SDS011;7656;51.954;7.998;2023-07-08T05:24:35;2.50;;;2.30;;
15110;SDS011;7656;51.954;7.998;2023-07-08T05:28:57;2.90;;;2.40;;
15110;SDS011;7656;51.954;7.998;2023-07-08T05:33:18;2.22;;;2.08;;
15110;SDS011;7656;51.954;7.998;2023-07-08T05:37:39;2.70;;;2.50;;
15110;SDS011;7656;51.954;7.998;2023-07-08T05:42:01;6.43;;;2.60;;
15110;SDS011;7656;51.954;7.998;2023-07-08T05:46:22;2.67;;;2.47;;
15110;SDS011;7656;51.954;7.998;2023-07-08T05:50:44;2.97;;;2.78;;
15110;SDS011;7656;51.954;7.998;2023-07-08T05:55:07;2.67;;;2.42;;
15110;SDS011;7656;51.954;7.998;2023-07-08T05:59:29;2.67;;;2.22;;
15110;SDS011;7656;51.954;7.998;2023-07-08T06:03:50;3.05;;;2.47;;
15110;SDS011;7656;51.954;7.998;2023-07-08T06:08:11;2.55;;;2.22;;
15110;SDS011;7656;51.954;7.998;2023-07-08T06:12:32;12.32;;;2.55;;
15110;SDS011;7656;51.954;7.998;2023-07-08T06:16:53;5.97;;;2.60;;
15110;SDS011;7656;51.954;7.998;2023-07-08T06:21:15;3.47;;;2.80;;
15110;SDS011;7656;51.954;7.998;2023-07-08T06:25:36;2.53;;;2.33;;
15110;SDS011;7656;51.954;7.998;2023-07-08T06:29:57;3.10;;;2.53;;
15110;SDS011;7656;51.954;7.998;2023-07-08T06:34:19;4.35;;;2.45;;
15110;SDS011;7656;51.954;7.998;2023-07-08T06:38:42;4.00;;;2.47;;
15110;SDS011;7656;51.954;7.998;2023-07-08T06:43:03;3.30;;;2.42;;
15110;SDS011;7656;51.954;7.998;2023-07-08T06:47:38;3.50;;;2.35;;
15110;SDS011;7656;51.954;7.998;2023-07-08T06:51:59;4.75;;;2.40;;
15110;SDS011;7656;51.954;7.998;2023-07-08T06:56:21;3.03;;;2.72;;
15110;SDS011;7656;51.954;7.998;2023-07-08T07:00:43;3.00;;;2.33;;
15110;SDS011;7656;51.954;7.998;2023-07-08T07:05:05;4.55;;;2.97;;
15110;SDS011;7656;51.954;7.998;2023-07-08T07:09:27;2.60;;;2.40;;
15110;SDS011;7656;51.954;7.998;2023-07-08T07:13:48;2.50;;;2.30;;
15110;SDS011;7656;51.954;7.998;2023-07-08T07:18:10;2.97;;;2.78;;
15110;SDS011;7656;51.954;7.998;2023-07-08T07:22:31;2.85;;;2.60;;
15110;SDS011;7656;51.954;7.998;2023-07-08T07:26:53;7.05;;;2.85;;
15110;SDS011;7656;51.954;7.998;2023-07-08T07:31:14;3.92;;;2.90;;
15110;SDS011;7656;51.954;7.998;2023-07-08T07:35:41;3.22;;;2.92;;
15110;SDS011;7656;51.954;7.998;2023-07-08T07:40:03;3.55;;;2.72;;
15110;SDS011;7656;51.954;7.998;2023-07-08T07:44:27;4.10;;;3.08;;
15110;SDS011;7656;51.954;7.998;2023-07-08T07:48:48;2.70;;;2.50;;
15110;SDS011;7656;51.954;7.998;2023-07-08T07:53:10;2.90;;;2.70;;
15110;SDS011;7656;51.954;7.998;2023-07-08T07:57:32;4.35;;;2.70;;
15110;SDS011;7656;51.954;7.998;2023-07-08T08:01:53;3.20;;;2.90;;
15110;SDS011;7656;51.954;7.998;2023-07-08T08:06:15;3.45;;;3.15;;
15110;SDS011;7656;51.954;7.998;2023-07-08T08:10:38;3.85;;;3.20;;
15110;SDS011;7656;51.954;7.998;2023-07-08T08:14:59;4.15;;;3.28;;
15110;SDS011;7656;51.954;7.998;2023-07-08T08:19:21;3.58;;;3.05;;
15110;SDS011;7656;51.954;7.998;2023-07-08T08:23:43;4.47;;;2.70;;
15110;SDS011;7656;51.954;7.998;2023-07-08T08:28:04;3.58;;;3.30;;
15110;SDS011;7656;51.954;7.998;2023-07-08T08:32:26;3.10;;;2.90;;
15110;SDS011;7656;51.954;7.998;2023-07-08T08:36:47;3.20;;;2.90;;
15110;SDS011;7656;51.954;7.998;2023-07-08T08:41:12;3.60;;;3.13;;
15110;SDS011;7656;51.954;7.998;2023-07-08T08:45:37;3.83;;;3.40;;
15110;SDS011;7656;51.954;7.998;2023-07-08T08:50:34;3.58;;;3.15;;
15110;SDS011;7656;51.954;7.998;2023-07-08T08:55:07;3.83;;;2.95;;
15110;SDS011;7656;51.954;7.998;2023-07-08T09:04:15;3.42;;;2.88;;
15110;SDS011;7656;51.954;7.998;2023-07-08T09:08:42;3.15;;;2.92;;
15110;SDS011;7656;51.954;7.998;2023-07-08T09:13:04;8.00;;;3.28;;
15110;SDS011;7656;51.954;7.998;2023-07-08T09:17:31;3.60;;;3.30;;
15110;SDS011;7656;51.954;7.998;2023-07-08T09:26:22;7.50;;;3.42;;
15110;SDS011;7656;51.954;7.998;2023-07-08T09:30:46;3.42;;;3.13;;
15110;SDS011;7656;51.954;7.998;2023-07-08T09:35:12;4.35;;;2.92;;
15110;SDS011;7656;51.954;7.998;2023-07-08T09:39:46;4.05;;;3.33;;
15110;SDS011;7656;51.954;7.998;2023-07-08T09:44:13;3.05;;;2.65;;
15110;SDS011;7656;51.954;7.998;2023-07-08T09:48:53;5.43;;;3.20;;
15110;SDS011;7656;51.954;7.998;2023-07-08T09:53:14;3.25;;;3.00;;
15110;SDS011;7656;51.954;7.998;2023-07-08T09:57:35;4.25;;;3.03;;
15110;SDS011;7656;51.954;7.998;2023-07-08T10:02:01;3.95;;;3.53;;
15110;SDS011;7656;51.954;7.998;2023-07-08T10:06:46;3.75;;;3.25;;
15110;SDS011;7656;51.954;7.998;2023-07-08T10:15:55;4.53;;;2.80;;
15110;SDS011;7656;51.954;7.998;2023-07-08T10:20:36;4.63;;;3.40;;
15110;SDS011;7656;51.954;7.998;2023-07-08T10:25:12;5.72;;;3.70;;
15110;SDS011;7656;51.954;7.998;2023-07-08T10:29:52;3.88;;;3.30;;
15110;SDS011;7656;51.954;7.998;2023-07-08T10:34:29;4.30;;;3.67;;
15110;SDS011;7656;51.954;7.998;2023-07-08T10:48:50;3.75;;;3.40;;
15110;SDS011;7656;51.954;7.998;2023-07-08T10:53:33;3.50;;;3.20;;
15110;SDS011;7656;51.954;7.998;2023-07-08T10:58:25;5.40;;;3.38;;
15110;SDS011;7656;51.954;7.998;2023-07-08T11:12:57;3.35;;;3.13;;
15110;SDS011;7656;51.954;7.998;2023-07-08T11:17:28;8.60;;;4.13;;
15110;SDS011;7656;51.954;7.998;2023-07-08T11:22:02;4.35;;;3.75;;
15110;SDS011;7656;51.954;7.998;2023-07-08T11:26:31;4.32;;;3.92;;
15110;SDS011;7656;51.954;7.998;2023-07-08T11:31:11;5.60;;;4.20;;
15110;SDS011;7656;51.954;7.998;2023-07-08T11:35:47;3.90;;;3.60;;
15110;SDS011;7656;51.954;7.998;2023-07-08T11:40:21;4.47;;;3.70;;
15110;SDS011;7656;51.954;7.998;2023-07-08T11:44:44;4.30;;;3.45;;
15110;SDS011;7656;51.954;7.998;2023-07-08T11:49:17;4.10;;;3.67;;
15110;SDS011;7656;51.954;7.998;2023-07-08T11:53:46;3.95;;;3.55;;
15110;SDS011;7656;51.954;7.998;2023-07-08T11:58:20;4.57;;;3.92;;
15110;SDS011;7656;51.954;7.998;2023-07-08T12:02:57;10.70;;;4.30;;
15110;SDS011;7656;51.954;7.998;2023-07-08T12:07:40;3.85;;;3.55;;
15110;SDS011;7656;51.954;7.998;2023-07-08T12:12:06;4.68;;;3.95;;
15110;SDS011;7656;51.954;7.998;2023-07-08T12:16:36;5.40;;;4.00;;
15110;SDS011;7656;51.954;7.998;2023-07-08T12:20:58;8.38;;;4.00;;
15110;SDS011;7656;51.954;7.998;2023-07-08T12:25:23;4.93;;;3.53;;
15110;SDS011;7656;51.954;7.998;2023-07-08T12:29:49;4.78;;;4.32;;
15110;SDS011;7656;51.954;7.998;2023-07-08T12:34:12;4.95;;;4.45;;
15110;SDS011;7656;51.954;7.998;2023-07-08T12:38:41;7.72;;;4.32;;
15110;SDS011;7656;51.954;7.998;2023-07-08T12:43:07;5.25;;;4.45;;
15110;SDS011;7656;51.954;7.998;2023-07-08T12:47:31;4.90;;;3.70;;
15110;SDS011;7656;51.954;7.998;2023-07-08T12:51:52;7.70;;;4.03;;
15110;SDS011;7656;51.954;7.998;2023-07-08T12:56:13;6.15;;;4.00;;
15110;SDS011;7656;51.954;7.998;2023-07-08T13:00:37;4.72;;;4.32;;
15110;SDS011;7656;51.954;7.998;2023-07-08T13:05:00;4.90;;;4.07;;
15110;SDS011;7656;51.954;7.998;2023-07-08T13:14:05;4.90;;;3.63;;
15110;SDS011;7656;51.954;7.998;2023-07-08T13:18:30;4.78;;;3.88;;
15110;SDS011;7656;51.954;7.998;2023-07-08T13:22:59;5.68;;;4.05;;
15110;SDS011;7656;51.954;7.998;2023-07-08T13:27:23;4.00;;;3.65;;
15110;SDS011;7656;51.954;7.998;2023-07-08T13:31:49;4.10;;;3.70;;
15110;SDS011;7656;51.954;7.998;2023-07-08T13:36:31;4.25;;;3.70;;
15110;SDS011;7656;51.954;7.998;2023-07-08T13:40:56;4.25;;;3.85;;
15110;SDS011;7656;51.954;7.998;2023-07-08T13:45:31;6.95;;;4.03;;
15110;SDS011;7656;51.954;7.998;2023-07-08T13:49:56;4.60;;;4.18;;
15110;SDS011;7656;51.954;7.998;2023-07-08T13:54:40;5.50;;;3.88;;
15110;SDS011;7656;51.954;7.998;2023-07-08T13:59:16;6.75;;;4.05;;
15110;SDS011;7656;51.954;7.998;2023-07-08T14:03:44;6.30;;;4.20;;
15110;SDS011;7656;51.954;7.998;2023-07-08T14:08:14;7.40;;;3.92;;
15110;SDS011;7656;51.954;7.998;2023-07-08T14:12:38;5.88;;;4.68;;
15110;SDS011;7656;51.954;7.998;2023-07-08T14:16:59;5.80;;;4.32;;
15110;SDS011;7656;51.954;7.998;2023-07-08T14:21:21;5.25;;;3.92;;
15110;SDS011;7656;51.954;7.998;2023-07-08T14:25:42;4.55;;;4.03;;
15110;SDS011;7656;51.954;7.998;2023-07-08T14:30:03;5.53;;;4.35;;
15110;SDS011;7656;51.954;7.998;2023-07-08T14:34:25;5.22;;;3.80;;
15110;SDS011;7656;51.954;7.998;2023-07-08T14:38:47;4.55;;;4.13;;
15110;SDS011;7656;51.954;7.998;2023-07-08T14:43:18;5.28;;;3.90;;
15110;SDS011;7656;51.954;7.998;2023-07-08T14:47:59;5.72;;;4.05;;
15110;SDS011;7656;51.954;7.998;2023-07-08T14:52:21;4.32;;;3.92;;
15110;SDS011;7656;51.954;7.998;2023-07-08T14:56:42;4.38;;;3.95;;
15110;SDS011;7656;51.954;7.998;2023-07-08T15:01:04;4.32;;;3.90;;
15110;SDS011;7656;51.954;7.998;2023-07-08T15:05:39;4.78;;;4.03;;
15110;SDS011;7656;51.954;7.998;2023-07-08T15:10:00;18.58;;;4.35;;
15110;SDS011;7656;51.954;7.998;2023-07-08T15:14:22;5.45;;;4.72;;
15110;SDS011;7656;51.954;7.998;2023-07-08T15:18:45;5.45;;;4.57;;
15110;SDS011;7656;51.954;7.998;2023-07-08T15:23:06;6.63;;;4.50;;
15110;SDS011;7656;51.954;7.998;2023-07-08T15:27:28;5.63;;;5.03;;
15110;SDS011;7656;51.954;7.998;2023-07-08T15:31:49;6.10;;;4.30;;
15110;SDS011;7656;51.954;7.998;2023-07-08T15:36:11;5.13;;;3.63;;
15110;SDS011;7656;51.954;7.998;2023-07-08T15:40:33;6.97;;;5.45;;
15110;SDS011;7656;51.954;7.998;2023-07-08T15:44:55;5.40;;;4.90;;
15110;SDS011;7656;51.954;7.998;2023-07-08T15:49:18;5.45;;;4.95;;
15110;SDS011;7656;51.954;7.998;2023-07-08T15:53:47;5.30;;;4.00;;
15110;SDS011;7656;51.954;7.998;2023-07-08T15:58:10;4.60;;;4.15;;
15110;SDS011;7656;51.954;7.998;2023-07-08T16:02:31;4.20;;;3.80;;
15110;SDS011;7656;51.954;7.998;2023-07-08T16:06:55;5.47;;;3.83;;
15110;SDS011;7656;51.954;7.998;2023-07-08T16:11:20;8.45;;;4.07;;
15110;SDS011;7656;51.954;7.998;2023-07-08T16:15:49;8.13;;;4.00;;
15110;SDS011;7656;51.954;7.998;2023-07-08T16:20:14;4.80;;;4.10;;
15110;SDS011;7656;51.954;7.998;2023-07-08T16:24:42;4.97;;;3.80;;
15110;SDS011;7656;51.954;7.998;2023-07-08T16:29:03;4.03;;;3.67;;
15110;SDS011;7656;51.954;7.998;2023-07-08T16:33:24;4.40;;;4.00;;
15110;SDS011;7656;51.954;7.998;2023-07-08T16:37:46;5.95;;;4.05;;
15110;SDS011;7656;51.954;7.998;2023-07-08T16:42:13;4.13;;;3.67;;
15110;SDS011;7656;51.954;7.998;2023-07-08T16:46:35;4.80;;;3.35;;
15110;SDS011;7656;51.954;7.998;2023-07-08T16:50:56;6.93;;;4.72;;
15110;SDS011;7656;51.954;7.998;2023-07-08T16:55:18;5.63;;;3.92;;
15110;SDS011;7656;51.954;7.998;2023-07-08T16:59:40;5.15;;;4.18;;
15110;SDS011;7656;51.954;7.998;2023-07-08T17:04:02;4.28;;;3.88;;
15110;SDS011;7656;51.954;7.998;2023-07-08T17:08:23;6.68;;;4.00;;
15110;SDS011;7656;51.954;7.998;2023-07-08T17:12:44;5.50;;;3.95;;
15110;SDS011;7656;51.954;7.998;2023-07-08T17:17:06;5.07;;;4.20;;
15110;SDS011;7656;51.954;7.998;2023-07-08T17:21:32;7.15;;;3.90;;
15110;SDS011;7656;51.954;7.998;2023-07-08T17:25:53;5.80;;;4.13;;
15110;SDS011;7656;51.954;7.998;2023-07-08T17:30:15;4.72;;;4.18;;
15110;SDS011;7656;51.954;7.998;2023-07-08T17:34:36;4.88;;;3.88;;
15110;SDS011;7656;51.954;7.998;2023-07-08T17:38:58;11.80;;;4.53;;
15110;SDS011;7656;51.954;7.998;2023-07-08T17:43:20;4.00;;;3.55;;
15110;SDS011;7656;51.954;7.998;2023-07-08T17:47:41;4.68;;;3.72;;
15110;SDS011;7656;51.954;7.998;2023-07-08T17:52:02;5.07;;;3.80;;
15110;SDS011;7656;51.954;7.998;2023-07-08T17:56:26;5.15;;;3.83;;
15110;SDS011;7656;51.954;7.998;2023-07-08T18:00:56;5.25;;;4.00;;
15110;SDS011;7656;51.954;7.998;2023-07-08T18:05:18;5.95;;;3.92;;
15110;SDS011;7656;51.954;7.998;2023-07-08T18:09:42;6.30;;;4.22;;
15110;SDS011;7656;51.954;7.998;2023-07-08T18:14:03;5.93;;;4.05;;
15110;SDS011;7656;51.954;7.998;2023-07-08T18:18:24;5.25;;;4.18;;
15110;SDS011;7656;51.954;7.998;2023-07-08T18:22:46;4.15;;;3.65;;
15110;SDS011;7656;51.954;7.998;2023-07-08T18:27:13;5.47;;;3.97;;
15110;SDS011;7656;51.954;7.998;2023-07-08T18:31:34;6.40;;;4.53;;
15110;SDS011;7656;51.954;7.998;2023-07-08T18:35:56;8.25;;;5.22;;
15110;SDS011;7656;51.954;7.998;2023-07-08T18:40:28;9.98;;;4.05;;
15110;SDS011;7656;51.954;7.998;2023-07-08T18:44:51;4.90;;;4.40;;
15110;SDS011;7656;51.954;7.998;2023-07-08T18:49:12;5.03;;;4.50;;
15110;SDS011;7656;51.954;7.998;2023-07-08T18:53:33;7.78;;;4.25;;
15110;SDS011;7656;51.954;7.998;2023-07-08T18:57:54;7.18;;;4.65;;
15110;SDS011;7656;51.954;7.998;2023-07-08T19:06:52;7.18;;;4.45;;
15110;SDS011;7656;51.954;7.998;2023-07-08T19:11:19;6.15;;;4.45;;
15110;SDS011;7656;51.954;7.998;2023-07-08T19:15:44;7.97;;;4.03;;
15110;SDS011;7656;51.954;7.998;2023-07-08T19:20:06;9.27;;;4.65;;
15110;SDS011;7656;51.954;7.998;2023-07-08T19:24:28;4.65;;;4.15;;
15110;SDS011;7656;51.954;7.998;2023-07-08T19:28:50;5.07;;;4.50;;
15110;SDS011;7656;51.954;7.998;2023-07-08T19:33:13;5.30;;;3.95;;
15110;SDS011;7656;51.954;7.998;2023-07-08T19:37:36;7.93;;;4.47;;
15110;SDS011;7656;51.954;7.998;2023-07-08T19:41:57;5.28;;;4.25;;
15110;SDS011;7656;51.954;7.998;2023-07-08T19:46:18;8.23;;;4.32;;
15110;SDS011;7656;51.954;7.998;2023-07-08T19:50:40;6.75;;;5.55;;
15110;SDS011;7656;51.954;7.998;2023-07-08T19:55:02;20.55;;;11.77;;
15110;SDS011;7656;51.954;7.998;2023-07-08T19:59:24;12.27;;;7.10;;
15110;SDS011;7656;51.954;7.998;2023-07-08T20:03:46;5.10;;;4.43;;
15110;SDS011;7656;51.954;7.998;2023-07-08T20:12:49;8.52;;;4.50;;
15110;SDS011;7656;51.954;7.998;2023-07-08T20:17:14;7.55;;;4.15;;
15110;SDS011;7656;51.954;7.998;2023-07-08T20:21:42;5.82;;;4.50;;
15110;SDS011;7656;51.954;7.998;2023-07-08T20:26:03;4.80;;;4.30;;
15110;SDS011;7656;51.954;7.998;2023-07-08T20:30:26;5.95;;;4.53;;
15110;SDS011;7656;51.954;7.998;2023-07-08T20:34:47;8.18;;;4.90;;
15110;SDS011;7656;51.954;7.998;2023-07-08T20:39:10;5.07;;;4.50;;
15110;SDS011;7656;51.954;7.998;2023-07-08T20:43:32;10.50;;;4.65;;
15110;SDS011;7656;51.954;7.998;2023-07-08T20:47:53;6.40;;;4.57;;
15110;SDS011;7656;51.954;7.998;2023-07-08T20:52:14;4.68;;;4.20;;
15110;SDS011;7656;51.954;7.998;2023-07-08T20:56:37;6.05;;;4.60;;
15110;SDS011;7656;51.954;7.998;2023-07-08T21:00:58;7.93;;;5.47;;
15110;SDS011;7656;51.954;7.998;2023-07-08T21:05:19;9.35;;;5.03;;
15110;SDS011;7656;51.954;7.998;2023-07-08T21:09:45;10.07;;;4.45;;
15110;SDS011;7656;51.954;7.998;2023-07-08T21:14:06;6.20;;;4.43;;
15110;SDS011;7656;51.954;7.998;2023-07-08T21:18:29;5.38;;;4.88;;
15110;SDS011;7656;51.954;7.998;2023-07-08T21:22:54;6.25;;;5.20;;
15110;SDS011;7656;51.954;7.998;2023-07-08T21:27:19;6.03;;;4.82;;
15110;SDS011;7656;51.954;7.998;2023-07-08T21:31:43;6.00;;;4.75;;
15110;SDS011;7656;51.954;7.998;2023-07-08T21:36:08;5.25;;;4.75;;
15110;SDS011;7656;51.954;7.998;2023-07-08T21:40:51;5.28;;;4.38;;
15110;SDS011;7656;51.954;7.998;2023-07-08T21:45:22;6.97;;;5.13;;
15110;SDS011;7656;51.954;7.998;2023-07-08T21:49:48;6.80;;;5.03;;
15110;SDS011;7656;51.954;7.998;2023-07-08T21:54:11;6.03;;;4.63;;
15110;SDS011;7656;51.954;7.998;2023-07-08T21:58:33;6.55;;;5.43;;
15110;SDS011;7656;51.954;7.998;2023-07-08T22:02:54;7.22;;;5.50;;
15110;SDS011;7656;51.954;7.998;2023-07-08T22:07:15;9.60;;;5.47;;
15110;SDS011;7656;51.954;7.998;2023-07-08T22:11:38;9.60;;;5.30;;
15110;SDS011;7656;51.954;7.998;2023-07-08T22:16:01;6.57;;;5.65;;
15110;SDS011;7656;51.954;7.998;2023-07-08T22:20:26;9.77;;;5.57;;
15110;SDS011;7656;51.954;7.998;2023-07-08T22:24:49;5.50;;;4.82;;
15110;SDS011;7656;51.954;7.998;2023-07-08T22:29:10;5.00;;;4.50;;
15110;SDS011;7656;51.954;7.998;2023-07-08T22:33:31;7.25;;;5.28;;
15110;SDS011;7656;51.954;7.998;2023-07-08T22:37:52;6.68;;;5.57;;
15110;SDS011;7656;51.954;7.998;2023-07-08T22:42:13;6.10;;;5.28;;
15110;SDS011;7656;51.954;7.998;2023-07-08T22:46:37;6.45;;;5.05;;
15110;SDS011;7656;51.954;7.998;2023-07-08T22:50:58;7.40;;;5.65;;
15110;SDS011;7656;51.954;7.998;2023-07-08T22:55:31;8.70;;;5.85;;
15110;SDS011;7656;51.954;7.998;2023-07-08T22:59:52;6.43;;;5.70;;
15110;SDS011;7656;51.954;7.998;2023-07-08T23:04:13;7.35;;;5.20;;
15110;SDS011;7656;51.954;7.998;2023-07-08T23:08:35;7.57;;;5.85;;
15110;SDS011;7656;51.954;7.998;2023-07-08T23:12:57;8.18;;;5.68;;
15110;SDS011;7656;51.954;7.998;2023-07-08T23:17:18;6.30;;;5.03;;
15110;SDS011;7656;51.954;7.998;2023-07-08T23:21:39;5.43;;;4.93;;
15110;SDS011;7656;51.954;7.998;2023-07-08T23:26:01;6.03;;;5.35;;
15110;SDS011;7656;51.954;7.998;2023-07-08T23:30:24;7.00;;;5.85;;
15110;SDS011;7656;51.954;7.998;2023-07-08T23:34:45;8.30;;;5.18;;
15110;SDS011;7656;51.954;7.998;2023-07-08T23:39:14;7.18;;;5.95;;
15110;SDS011;7656;51.954;7.998;2023-07-08T23:43:38;6.70;;;6.10;;
15110;SDS011;7656;51.954;7.998;2023-07-08T23:48:05;9.55;;;6.07;;
15110;SDS011;7656;51.954;7.998;2023-07-08T23:52:28;6.65;;;5.43;;
15110;SDS011;7656;51.954;7.998;2023-07-08T23:56:50;8.35;;;5.72;;
